Time;durP1;ratioP1;P1;durP2;ratioP2;P2;SDS_P1;SDS_P2;PMS_P1;PMS_P2;Temp;Humidity;BMP_temperature;BMP_pressure;BME280_temperature;BME280_humidity;BME280_pressure;Samples;Min_cycle;Max_cycle;Signal;HPM_P1;HPM_P2
2024/02/23 00:01:20;;;;;;;11.65;2.20;;;;;;;4.42;100.00;98455.38;5079260;28;20161;-68
2024/02/23 00:03:46;;;;;;;10.07;2.15;;;;;;;4.39;100.00;98457.91;5062475;28;20032;-68
2024/02/23 00:06:12;;;;;;;12.80;1.95;;;;;;;4.35;100.00;98451.41;5076381;28;20081;-68
2024/02/23 00:08:37;;;;;;;16.88;2.28;;;;;;;4.16;100.00;98449.53;5108393;28;20037;-68
2024/02/23 00:11:03;;;;;;;14.30;2.50;;;;;;;4.12;100.00;98450.44;5093760;28;20089;-68
2024/02/23 00:13:29;;;;;;;10.13;1.75;;;;;;;4.12;100.00;98451.25;5103585;28;20040;-68
2024/02/23 00:15:54;;;;;;;9.00;1.52;;;;;;;4.11;100.00;98454.31;5066507;28;20538;-68
2024/02/23 00:18:20;;;;;;;11.90;1.90;;;;;;;4.10;100.00;98448.00;5052884;28;20036;-68
2024/02/23 00:20:46;;;;;;;9.50;2.15;;;;;;;4.04;100.00;98451.97;5066162;28;20032;-68
2024/02/23 00:23:12;;;;;;;14.75;2.30;;;;;;;4.05;100.00;98444.53;5075720;28;20111;-68
2024/02/23 00:25:37;;;;;;;9.65;1.90;;;;;;;4.03;100.00;98445.63;5049838;28;20029;-68
2024/02/23 00:28:03;;;;;;;11.13;2.00;;;;;;;4.03;100.00;98447.56;5099333;28;20024;-68
2024/02/23 00:30:29;;;;;;;14.07;1.95;;;;;;;4.11;100.00;98451.56;5083566;28;20499;-68
2024/02/23 00:32:54;;;;;;;15.00;2.10;;;;;;;4.12;100.00;98443.00;5074893;28;20025;-68
2024/02/23 00:35:20;;;;;;;8.57;1.73;;;;;;;4.14;100.00;98448.22;5088309;28;20364;-68
2024/02/23 00:37:45;;;;;;;10.85;2.35;;;;;;;4.10;100.00;98442.50;5087065;28;20032;-68
2024/02/23 00:40:11;;;;;;;9.48;1.90;;;;;;;4.12;100.00;98440.25;5083241;28;20029;-68
2024/02/23 00:42:36;;;;;;;8.35;1.77;;;;;;;4.12;100.00;98439.44;5071268;28;20028;-68
2024/02/23 00:45:03;;;;;;;11.48;1.95;;;;;;;4.12;100.00;98442.19;5061001;28;20276;-68
2024/02/23 00:47:28;;;;;;;8.93;1.70;;;;;;;4.13;100.00;98441.91;5061240;28;20040;-68
2024/02/23 00:49:53;;;;;;;10.57;1.63;;;;;;;4.12;100.00;98453.19;5092002;28;20031;-68
2024/02/23 00:52:19;;;;;;;14.02;1.88;;;;;;;3.97;100.00;98438.59;5089683;28;20032;-68
2024/02/23 00:54:45;;;;;;;7.40;1.95;;;;;;;3.96;100.00;98441.66;5050235;28;20051;-68
2024/02/23 00:57:11;;;;;;;8.70;1.90;;;;;;;3.94;100.00;98432.91;5058131;28;20036;-68
2024/02/23 00:59:36;;;;;;;6.00;1.40;;;;;;;3.93;100.00;98431.28;5084714;28;20391;-68
2024/02/23 01:02:02;;;;;;;7.75;1.77;;;;;;;3.92;100.00;98430.44;5084885;28;20063;-68
2024/02/23 01:04:27;;;;;;;12.35;2.05;;;;;;;3.92;100.00;98429.63;5097599;28;20028;-68
2024/02/23 01:06:52;;;;;;;8.05;1.40;;;;;;;3.93;100.00;98436.78;5085857;28;20430;-68
2024/02/23 01:09:20;;;;;;;14.75;2.30;;;;;;;3.90;100.00;98427.22;5080483;28;20029;-68
2024/02/23 01:11:46;;;;;;;8.88;1.98;;;;;;;3.93;100.00;98425.78;5068909;28;20028;-68
2024/02/23 01:14:12;;;;;;;12.52;1.92;;;;;;;3.91;100.00;98419.78;5070173;28;20032;-68
2024/02/23 01:16:37;;;;;;;9.90;1.40;;;;;;;3.95;100.00;98418.03;5085574;28;20020;-68
2024/02/23 01:19:03;;;;;;;10.38;2.10;;;;;;;3.92;100.00;98402.16;5099154;28;20032;-68
2024/02/23 01:21:28;;;;;;;11.65;1.50;;;;;;;3.98;100.00;98410.03;5097560;28;20031;-68
2024/02/23 01:23:54;;;;;;;15.23;1.85;;;;;;;3.93;100.00;98398.31;5064068;28;20484;-68
2024/02/23 01:26:19;;;;;;;7.13;1.45;;;;;;;3.91;100.00;98392.31;5089833;28;20032;-68
2024/02/23 01:28:45;;;;;;;10.38;1.95;;;;;;;3.90;100.00;98399.75;5044319;28;20499;-68
2024/02/23 01:31:11;;;;;;;12.50;1.88;;;;;;;3.88;100.00;98390.97;5069085;28;20051;-68
2024/02/23 01:33:37;;;;;;;11.80;1.40;;;;;;;3.89;100.00;98392.59;5065695;28;20089;-68
2024/02/23 01:36:07;;;;;;;12.90;2.13;;;;;;;3.89;100.00;98386.31;5043079;28;20017;-68
2024/02/23 01:38:33;;;;;;;7.80;1.40;;;;;;;3.89;100.00;98386.31;5053637;28;20040;-68
2024/02/23 01:41:01;;;;;;;11.77;1.73;;;;;;;3.88;100.00;98381.94;5076851;28;20029;-68
2024/02/23 01:43:27;;;;;;;10.90;1.77;;;;;;;3.87;100.00;98372.03;5077139;28;20119;-68
2024/02/23 01:45:53;;;;;;;7.60;1.48;;;;;;;3.83;100.00;98377.34;5075906;28;20088;-68
2024/02/23 01:48:18;;;;;;;14.77;2.22;;;;;;;3.84;100.00;98378.16;5071686;28;20473;-68
2024/02/23 01:50:44;;;;;;;7.22;1.38;;;;;;;3.86;100.00;98370.44;5058819;28;20055;-68
2024/02/23 01:53:10;;;;;;;11.48;2.05;;;;;;;3.83;100.00;98366.34;5056938;28;20115;-68
2024/02/23 01:55:36;;;;;;;6.40;2.03;;;;;;;3.78;100.00;98372.75;5075165;28;20021;-68
2024/02/23 01:58:02;;;;;;;9.50;1.67;;;;;;;3.79;100.00;98368.91;5043288;28;20028;-68
2024/02/23 02:00:27;;;;;;;7.70;1.40;;;;;;;3.79;100.00;98371.66;5066106;28;20032;-68
2024/02/23 02:02:52;;;;;;;8.18;1.30;;;;;;;3.81;100.00;98352.91;5060346;28;20039;-68
2024/02/23 02:05:18;;;;;;;7.57;1.35;;;;;;;3.78;100.00;98348.03;5043607;28;20028;-68
2024/02/23 02:07:44;;;;;;;10.40;1.85;;;;;;;3.80;100.00;98345.81;5056773;28;20043;-68
2024/02/23 02:10:09;;;;;;;12.45;1.67;;;;;;;3.79;100.00;98344.19;5046418;28;20036;-68
2024/02/23 02:12:35;;;;;;;11.23;1.40;;;;;;;3.81;100.00;98346.63;5073358;28;20060;-68
2024/02/23 02:15:01;;;;;;;9.48;1.35;;;;;;;3.82;100.00;98337.28;5058721;28;20079;-68
2024/02/23 02:17:29;;;;;;;10.90;1.70;;;;;;;3.86;100.00;98342.97;5085301;28;20036;-68
2024/02/23 02:19:55;;;;;;;6.95;1.13;;;;;;;3.89;100.00;98345.09;5075873;28;20079;-68
2024/02/23 02:22:20;;;;;;;10.77;1.40;;;;;;;3.93;100.00;98338.72;5056323;28;20025;-68
2024/02/23 02:24:47;;;;;;;12.60;1.38;;;;;;;3.93;100.00;98329.66;5055258;28;20111;-68
2024/02/23 02:27:13;;;;;;;9.40;1.27;;;;;;;3.92;100.00;98339.00;5083880;28;20024;-68
2024/02/23 02:29:39;;;;;;;11.45;1.17;;;;;;;3.98;100.00;98335.03;5043263;28;20383;-68
2024/02/23 02:32:04;;;;;;;12.13;1.77;;;;;;;4.00;100.00;98327.31;5073666;28;20089;-68
2024/02/23 02:34:30;;;;;;;3.85;1.50;;;;;;;3.98;100.00;98326.81;5096556;28;20031;-68
2024/02/23 02:36:55;;;;;;;10.10;1.50;;;;;;;3.97;100.00;98314.19;5082982;28;20439;-68
2024/02/23 02:39:21;;;;;;;6.80;1.27;;;;;;;4.01;100.00;98313.28;5058067;28;20119;-68
2024/02/23 02:41:48;;;;;;;10.55;1.70;;;;;;;3.99;100.00;98311.97;5069210;28;20033;-68
2024/02/23 02:44:13;;;;;;;8.80;1.45;;;;;;;3.99;100.00;98303.72;5095036;28;20028;-69
2024/02/23 02:46:39;;;;;;;10.88;1.73;;;;;;;3.98;100.00;98291.09;5075452;28;20055;-68
2024/02/23 02:49:04;;;;;;;6.63;1.23;;;;;;;3.93;100.00;98282.97;5086793;28;20040;-68
2024/02/23 02:51:30;;;;;;;8.73;1.80;;;;;;;3.94;100.00;98287.34;5068428;28;20484;-68
2024/02/23 02:53:55;;;;;;;8.23;1.08;;;;;;;3.95;100.00;98269.75;5072804;28;20025;-68
2024/02/23 02:56:21;;;;;;;7.60;1.13;;;;;;;3.94;100.00;98273.63;5075714;28;20141;-68
2024/02/23 02:58:46;;;;;;;6.72;1.65;;;;;;;3.91;100.00;98269.53;5072452;28;20040;-68
2024/02/23 03:01:12;;;;;;;9.00;1.17;;;;;;;3.92;100.00;98267.59;5058888;28;20028;-68
2024/02/23 03:03:37;;;;;;;5.05;1.00;;;;;;;3.88;100.00;98267.41;5077923;28;20472;-68
2024/02/23 03:06:03;;;;;;;5.15;1.20;;;;;;;3.86;100.00;98271.56;5099199;28;20028;-68
2024/02/23 03:08:28;;;;;;;13.45;1.58;;;;;;;3.87;100.00;98273.19;5072596;28;20082;-68
2024/02/23 03:10:54;;;;;;;14.05;1.50;;;;;;;3.80;100.00;98279.09;5055236;28;20446;-68
2024/02/23 03:13:19;;;;;;;7.05;1.17;;;;;;;3.81;100.00;98278.78;5089080;28;20039;-68
2024/02/23 03:15:45;;;;;;;8.55;1.60;;;;;;;3.75;100.00;98270.97;5048256;28;20037;-68
2024/02/23 03:18:10;;;;;;;6.95;1.52;;;;;;;3.78;100.00;98276.66;5094912;28;20058;-68
2024/02/23 03:20:36;;;;;;;7.85;1.35;;;;;;;3.75;100.00;98271.75;5084119;28;20501;-68
2024/02/23 03:23:03;;;;;;;8.35;1.73;;;;;;;3.71;100.00;98281.75;5064918;28;20039;-68
2024/02/23 03:25:29;;;;;;;7.88;1.60;;;;;;;3.68;100.00;98279.59;5079105;28;20036;-68
2024/02/23 03:27:54;;;;;;;14.45;1.55;;;;;;;3.66;100.00;98284.56;5065266;28;20024;-68
2024/02/23 03:30:20;;;;;;;9.80;1.40;;;;;;;3.61;100.00;98287.41;5078626;28;20051;-68
2024/02/23 03:32:46;;;;;;;5.90;1.35;;;;;;;3.69;100.00;98285.91;5095553;28;20028;-68
2024/02/23 03:35:12;;;;;;;13.00;1.67;;;;;;;3.55;100.00;98280.38;5095992;28;20071;-68
2024/02/23 03:37:37;;;;;;;9.02;1.65;;;;;;;3.61;100.00;98281.91;5066256;28;20505;-68
2024/02/23 03:40:06;;;;;;;11.07;1.35;;;;;;;3.58;100.00;98277.03;5078721;28;20032;-68
2024/02/23 03:42:32;;;;;;;7.20;1.25;;;;;;;3.52;100.00;98281.00;5068337;28;20044;-68
2024/02/23 03:44:57;;;;;;;8.52;1.35;;;;;;;3.50;100.00;98283.22;5082599;28;20548;-68
2024/02/23 03:47:23;;;;;;;7.72;2.20;;;;;;;3.52;100.00;98281.00;5093379;28;20067;-68
2024/02/23 03:49:48;;;;;;;8.88;1.20;;;;;;;3.53;100.00;98279.88;5087959;28;20426;-68
2024/02/23 03:52:14;;;;;;;9.00;1.17;;;;;;;3.54;100.00;98287.00;5067685;28;20028;-68
2024/02/23 03:54:39;;;;;;;11.43;1.38;;;;;;;3.52;100.00;98295.53;5065814;28;20369;-68
2024/02/23 03:57:05;;;;;;;7.30;1.15;;;;;;;3.51;100.00;98284.84;5058212;28;20024;-68
2024/02/23 03:59:30;;;;;;;8.40;2.17;;;;;;;3.46;100.00;98282.22;5070817;28;20040;-68
2024/02/23 04:01:56;;;;;;;12.50;1.40;;;;;;;3.46;100.00;98276.72;5071638;28;20058;-68
2024/02/23 04:04:21;;;;;;;7.50;1.20;;;;;;;3.44;100.00;98281.69;5073390;28;20032;-68
2024/02/23 04:06:47;;;;;;;7.20;1.42;;;;;;;3.43;100.00;98275.38;5083819;28;20032;-68
2024/02/23 04:09:12;;;;;;;4.70;1.05;;;;;;;3.43;100.00;98280.06;5070653;28;20038;-68
2024/02/23 04:11:38;;;;;;;6.60;1.30;;;;;;;3.41;100.00;98265.84;5072754;28;20029;-68
2024/02/23 04:14:05;;;;;;;7.20;1.25;;;;;;;3.40;100.00;98269.66;5074495;28;20087;-68
2024/02/23 04:16:30;;;;;;;9.02;1.38;;;;;;;3.40;100.00;98269.66;5064288;28;20020;-69
2024/02/23 04:18:56;;;;;;;9.60;1.38;;;;;;;3.34;100.00;98261.56;5065665;28;20044;-68
2024/02/23 04:21:22;;;;;;;8.90;1.25;;;;;;;3.34;100.00;98261.56;5077255;28;20484;-68
2024/02/23 04:23:47;;;;;;;7.75;1.33;;;;;;;3.33;100.00;98256.34;5061739;28;20472;-68
2024/02/23 04:26:13;;;;;;;8.48;1.17;;;;;;;3.32;100.00;98257.47;5093228;28;20028;-68
2024/02/23 04:28:39;;;;;;;8.10;0.90;;;;;;;3.36;100.00;98259.31;5078392;28;20032;-68
2024/02/23 04:31:05;;;;;;;5.93;1.05;;;;;;;3.38;100.00;98260.94;5098267;28;20514;-68
2024/02/23 04:33:30;;;;;;;7.25;1.20;;;;;;;3.35;100.00;98257.69;5098752;28;20063;-68
2024/02/23 04:35:55;;;;;;;8.88;1.42;;;;;;;3.34;100.00;98256.06;5089479;28;20074;-68
2024/02/23 04:38:21;;;;;;;4.80;0.73;;;;;;;3.37;100.00;98254.63;5047702;28;20045;-68
2024/02/23 04:40:46;;;;;;;6.25;0.90;;;;;;;3.39;100.00;98259.81;5069535;28;20025;-68
2024/02/23 04:43:12;;;;;;;7.72;1.08;;;;;;;3.43;100.00;98247.16;5061946;28;20038;-68
2024/02/23 04:45:37;;;;;;;6.20;1.30;;;;;;;3.44;100.00;98246.81;5067765;28;20094;-68
2024/02/23 04:48:03;;;;;;;8.35;1.23;;;;;;;3.46;100.00;98241.84;5091842;28;20384;-68
2024/02/23 04:50:29;;;;;;;4.88;1.00;;;;;;;3.50;100.00;98242.06;5075669;28;20024;-68
2024/02/23 04:52:54;;;;;;;6.90;1.25;;;;;;;3.51;100.00;98239.03;5072643;28;20042;-68
2024/02/23 04:55:20;;;;;;;6.53;1.33;;;;;;;3.56;100.00;98249.06;5077816;28;20570;-68
2024/02/23 04:57:45;;;;;;;3.20;0.90;;;;;;;3.60;100.00;98249.31;5072686;28;20039;-68
2024/02/23 05:00:11;;;;;;;7.18;1.00;;;;;;;3.62;100.00;98245.09;5067868;28;20418;-68
2024/02/23 05:02:37;;;;;;;6.38;1.13;;;;;;;3.63;100.00;98252.25;5064647;28;20043;-68
2024/02/23 05:05:04;;;;;;;9.13;1.08;;;;;;;3.67;100.00;98247.75;5083843;28;20471;-68
2024/02/23 05:07:31;;;;;;;8.23;1.35;;;;;;;3.70;100.00;98251.81;5078651;28;20051;-68
2024/02/23 05:09:57;;;;;;;4.95;0.90;;;;;;;3.73;100.00;98249.31;5061212;28;20050;-68
2024/02/23 05:12:22;;;;;;;4.82;0.77;;;;;;;3.74;100.00;98245.44;5061239;28;20021;-68
2024/02/23 05:14:47;;;;;;;4.10;0.68;;;;;;;3.63;100.00;98243.19;5071486;28;20029;-68
2024/02/23 05:17:13;;;;;;;7.80;1.02;;;;;;;3.70;100.00;98244.41;5090095;28;20020;-68
2024/02/23 05:19:38;;;;;;;6.13;1.02;;;;;;;3.72;100.00;98246.84;5042234;28;20038;-68
2024/02/23 05:22:04;;;;;;;7.53;1.23;;;;;;;3.78;100.00;98242.88;5089428;28;20028;-68
2024/02/23 05:24:29;;;;;;;5.80;1.00;;;;;;;3.79;100.00;98245.34;5072146;28;20079;-68
2024/02/23 05:26:55;;;;;;;4.50;1.00;;;;;;;3.80;100.00;98246.16;5041033;28;20025;-68
2024/02/23 05:29:22;;;;;;;9.55;1.15;;;;;;;3.79;100.00;98253.56;5078986;28;20070;-68
2024/02/23 05:31:52;;;;;;;4.53;0.80;;;;;;;3.80;100.00;98251.66;5085140;28;20033;-68
2024/02/23 05:34:18;;;;;;;6.63;1.13;;;;;;;3.76;100.00;98253.34;5067214;28;20036;-68
2024/02/23 05:36:43;;;;;;;6.38;1.05;;;;;;;3.74;100.00;98253.69;5083798;28;20028;-68
2024/02/23 05:39:09;;;;;;;5.30;1.52;;;;;;;3.71;100.00;98245.25;5097834;28;20424;-68
2024/02/23 05:41:36;;;;;;;6.55;0.85;;;;;;;3.71;100.00;98239.75;5075215;28;20110;-68
2024/02/23 05:44:05;;;;;;;5.50;1.35;;;;;;;3.68;100.00;98243.09;5079963;27;20027;-68
2024/02/23 05:46:34;;;;;;;5.95;0.73;;;;;;;3.68;100.00;98232.94;5098080;28;20118;-68
2024/02/23 05:48:59;;;;;;;4.43;0.95;;;;;;;3.68;100.00;98243.91;5077350;28;20111;-68
2024/02/23 05:51:25;;;;;;;7.07;0.90;;;;;;;3.65;100.00;98241.78;5060978;28;20032;-68
2024/02/23 05:53:50;;;;;;;6.18;1.00;;;;;;;3.59;100.00;98245.72;5082475;28;20430;-68
2024/02/23 05:56:16;;;;;;;5.63;0.93;;;;;;;3.60;100.00;98241.88;5070447;28;20028;-68
2024/02/23 05:58:41;;;;;;;4.88;0.80;;;;;;;3.58;100.00;98239.41;5082332;28;20028;-68
2024/02/23 06:01:07;;;;;;;5.47;1.00;;;;;;;3.56;100.00;98229.84;5072660;28;20032;-68
2024/02/23 06:03:32;;;;;;;7.18;0.90;;;;;;;3.58;100.00;98233.13;5060004;28;20032;-68
2024/02/23 06:05:58;;;;;;;3.92;0.90;;;;;;;3.55;100.00;98228.25;5076706;28;20040;-68
2024/02/23 06:08:23;;;;;;;4.65;1.00;;;;;;;3.54;100.00;98232.13;5043626;28;20033;-68
2024/02/23 06:10:49;;;;;;;3.33;0.90;;;;;;;3.53;100.00;98227.72;5072477;28;20551;-68
2024/02/23 06:13:14;;;;;;;4.70;1.02;;;;;;;3.56;100.00;98235.34;5077915;28;20048;-68
2024/02/23 06:15:40;;;;;;;3.42;0.80;;;;;;;3.53;100.00;98230.47;5069692;28;20033;-69
2024/02/23 06:18:06;;;;;;;5.50;1.13;;;;;;;3.54;100.00;98237.59;5096198;28;20035;-68
2024/02/23 06:20:32;;;;;;;4.70;0.95;;;;;;;3.50;100.00;98237.38;5079791;28;20115;-68
2024/02/23 06:22:57;;;;;;;5.47;1.00;;;;;;;3.50;100.00;98231.06;5066269;28;20028;-68
2024/02/23 06:25:23;;;;;;;4.53;0.80;;;;;;;3.46;100.00;98235.56;5063529;28;20021;-68
2024/02/23 06:27:48;;;;;;;5.88;1.25;;;;;;;3.42;100.00;98232.59;5077879;28;20051;-68
2024/02/23 06:30:14;;;;;;;6.45;1.35;;;;;;;3.44;100.00;98235.03;5063091;28;20036;-69
2024/02/23 06:32:39;;;;;;;6.75;1.20;;;;;;;3.45;100.00;98239.41;5079738;28;20095;-68
2024/02/23 06:35:06;;;;;;;6.47;1.15;;;;;;;3.43;100.00;98236.16;5100455;28;20028;-68
2024/02/23 06:37:32;;;;;;;6.28;0.80;;;;;;;3.38;100.00;98233.50;5067072;28;20063;-68
2024/02/23 06:39:58;;;;;;;4.72;0.75;;;;;;;3.40;100.00;98231.25;5084326;28;20029;-68
2024/02/23 06:42:23;;;;;;;4.00;0.70;;;;;;;3.35;100.00;98232.19;5061449;28;20399;-68
2024/02/23 06:44:49;;;;;;;8.10;1.00;;;;;;;3.34;100.00;98225.88;5059082;28;20032;-69
2024/02/23 06:47:15;;;;;;;4.95;0.93;;;;;;;3.32;100.00;98225.38;5077456;28;20050;-68
2024/02/23 06:49:43;;;;;;;5.80;1.08;;;;;;;3.30;100.00;98230.34;5088280;28;20032;-68
2024/02/23 06:52:09;;;;;;;3.75;1.00;;;;;;;3.27;100.00;98233.69;5096551;28;20059;-68
2024/02/23 06:54:35;;;;;;;9.80;1.25;;;;;;;3.25;100.00;98238.66;5092923;28;20025;-68
2024/02/23 06:57:03;;;;;;;4.28;0.90;;;;;;;3.26;100.00;98243.03;5058985;28;20391;-68
2024/02/23 06:59:28;;;;;;;7.78;1.20;;;;;;;3.21;100.00;98248.63;5059281;28;20082;-68
2024/02/23 07:01:55;;;;;;;6.60;1.05;;;;;;;3.26;100.00;98250.44;5058696;28;20060;-68
2024/02/23 07:04:20;;;;;;;6.53;1.35;;;;;;;3.26;100.00;98248.53;5088004;28;20043;-68
2024/02/23 07:06:46;;;;;;;8.00;1.10;;;;;;;3.25;100.00;98246.88;5093051;28;20036;-68
2024/02/23 07:09:12;;;;;;;5.65;1.23;;;;;;;3.24;100.00;98245.25;5088230;28;20024;-68
2024/02/23 07:11:38;;;;;;;6.07;1.02;;;;;;;3.25;100.00;98251.56;5082496;28;20032;-68
2024/02/23 07:14:04;;;;;;;4.03;0.80;;;;;;;3.24;100.00;98245.25;5059928;28;20436;-68
2024/02/23 07:16:30;;;;;;;6.65;1.15;;;;;;;3.28;100.00;98243.53;5081946;28;20028;-68
2024/02/23 07:18:56;;;;;;;4.05;0.88;;;;;;;3.27;100.00;98241.09;5096005;28;20028;-68
2024/02/23 07:21:22;;;;;;;4.15;0.93;;;;;;;3.28;100.00;98250.94;5095653;28;20039;-68
2024/02/23 07:23:47;;;;;;;6.05;0.90;;;;;;;3.27;100.00;98250.16;5099320;28;20032;-68
2024/02/23 07:26:13;;;;;;;7.30;0.80;;;;;;;3.27;100.00;98249.34;5078587;28;20392;-68
2024/02/23 07:28:38;;;;;;;5.55;0.90;;;;;;;3.29;100.00;98244.38;5078822;28;20031;-68
2024/02/23 07:31:04;;;;;;;5.32;1.02;;;;;;;3.33;100.00;98245.38;5078858;28;20032;-68
2024/02/23 07:33:29;;;;;;;4.10;0.80;;;;;;;3.32;100.00;98241.84;5078572;28;20032;-68
2024/02/23 07:35:55;;;;;;;3.83;0.82;;;;;;;3.36;100.00;98256.56;5060538;28;20024;-68
2024/02/23 07:38:20;;;;;;;4.50;0.95;;;;;;;3.37;100.00;98251.88;5072183;28;20498;-68
2024/02/23 07:40:46;;;;;;;5.70;0.90;;;;;;;3.38;100.00;98247.22;5100476;28;20033;-68
2024/02/23 07:43:11;;;;;;;5.45;0.90;;;;;;;3.44;100.00;98238.59;5060942;28;20024;-68
2024/02/23 07:45:37;;;;;;;2.50;0.90;;;;;;;3.41;100.00;98241.13;5076994;28;20542;-68
2024/02/23 07:48:03;;;;;;;3.97;1.00;;;;;;;3.42;100.00;98235.31;5025114;28;20525;-68
2024/02/23 07:50:29;;;;;;;4.45;0.70;;;;;;;3.43;100.00;98244.41;5093464;28;20106;-68
2024/02/23 07:52:54;;;;;;;3.92;0.80;;;;;;;3.47;100.00;98243.47;5078501;28;20035;-68
2024/02/23 07:55:20;;;;;;;3.63;1.10;;;;;;;3.48;100.00;98238.78;5074028;28;20028;-68
2024/02/23 07:57:45;;;;;;;2.40;0.73;;;;;;;3.53;100.00;98252.41;5069910;28;20035;-68
2024/02/23 08:00:11;;;;;;;6.20;1.02;;;;;;;3.57;100.00;98250.72;5078585;28;20031;-68
2024/02/23 08:02:37;;;;;;;1.85;0.93;;;;;;;3.59;100.00;98259.44;5067234;28;20039;-68
2024/02/23 08:05:03;;;;;;;3.25;1.60;;;;;;;3.65;100.00;98262.91;5058228;28;20037;-68
2024/02/23 08:07:30;;;;;;;4.47;1.67;;;;;;;3.74;100.00;98264.66;5069707;28;20040;-68
2024/02/23 08:09:56;;;;;;;5.13;1.80;;;;;;;3.83;100.00;98258.47;5078119;28;20020;-68
2024/02/23 08:12:22;;;;;;;6.13;1.60;;;;;;;3.85;100.00;98259.78;5058735;28;20109;-68
2024/02/23 08:14:49;;;;;;;5.35;1.50;;;;;;;3.92;100.00;98264.84;5047845;28;20028;-68
2024/02/23 08:17:14;;;;;;;4.38;1.35;;;;;;;3.98;100.00;98263.63;5055961;28;20033;-68
2024/02/23 08:19:40;;;;;;;4.07;1.27;;;;;;;4.03;100.00;98255.28;5083851;28;20059;-68
2024/02/23 08:22:05;;;;;;;4.65;1.48;;;;;;;4.11;100.00;98264.75;5082131;28;20091;-68
2024/02/23 08:24:31;;;;;;;5.75;1.40;;;;;;;4.18;100.00;98271.47;5082232;28;20027;-68
2024/02/23 08:26:56;;;;;;;3.10;1.02;;;;;;;4.25;100.00;98280.09;5083638;28;20025;-68
2024/02/23 08:29:22;;;;;;;4.13;1.05;;;;;;;4.33;100.00;98286.00;5090866;28;20040;-68
2024/02/23 08:31:48;;;;;;;6.05;1.10;;;;;;;4.40;100.00;98289.97;5077676;28;20048;-68
2024/02/23 08:34:13;;;;;;;4.63;1.30;;;;;;;4.48;100.00;98278.25;5067489;28;20028;-68
2024/02/23 08:36:39;;;;;;;3.88;0.85;;;;;;;4.55;100.00;98277.03;5080083;28;20029;-68
2024/02/23 08:39:04;;;;;;;6.43;1.10;;;;;;;4.61;100.00;98278.53;5090661;28;20066;-68
2024/02/23 08:41:30;;;;;;;5.78;1.10;;;;;;;4.66;100.00;98259.97;5069425;28;20041;-68
2024/02/23 08:43:55;;;;;;;3.00;0.90;;;;;;;4.73;100.00;98266.97;5088882;28;20096;-68
2024/02/23 08:46:21;;;;;;;3.60;1.10;;;;;;;4.81;100.00;98274.50;5072448;28;20047;-68
2024/02/23 08:48:47;;;;;;;5.80;1.33;;;;;;;4.89;100.00;98260.00;5083935;28;20044;-68
2024/02/23 08:51:12;;;;;;;2.97;1.00;;;;;;;4.99;100.00;98264.47;5072241;28;20090;-68
2024/02/23 08:53:38;;;;;;;4.93;1.15;;;;;;;5.07;100.00;98269.19;5081445;28;20035;-68
2024/02/23 08:56:04;;;;;;;6.80;1.13;;;;;;;5.15;100.00;98265.69;5081226;28;20031;-68
2024/02/23 08:58:30;;;;;;;3.63;1.00;;;;;;;5.23;100.00;98261.38;5111247;28;20115;-68
2024/02/23 09:00:55;;;;;;;3.63;1.10;;;;;;;5.29;100.00;98258.19;5056016;28;20035;-68
2024/02/23 09:03:21;;;;;;;5.80;1.00;;;;;;;5.36;100.00;98261.31;5081166;28;20077;-69
2024/02/23 09:05:48;;;;;;;3.58;1.08;;;;;;;5.40;100.00;98266.97;5083767;28;20040;-68
2024/02/23 09:08:14;;;;;;;4.82;1.33;;;;;;;5.49;100.00;98272.53;5074633;28;20024;-68
2024/02/23 09:10:39;;;;;;;3.53;1.10;;;;;;;5.52;100.00;98272.75;5072547;28;20035;-68
2024/02/23 09:13:04;;;;;;;4.75;1.00;;;;;;;5.55;100.00;98272.09;5062107;28;20033;-68
2024/02/23 09:15:31;;;;;;;3.00;0.98;;;;;;;5.64;100.00;98269.41;5069452;28;20384;-68
2024/02/23 09:17:56;;;;;;;3.78;1.10;;;;;;;5.70;100.00;98264.56;5074360;28;20117;-68
2024/02/23 09:20:22;;;;;;;6.53;1.30;;;;;;;5.72;100.00;98271.38;5055528;28;20036;-68
2024/02/23 09:22:47;;;;;;;5.32;1.00;;;;;;;5.82;100.00;98273.03;5064269;28;20032;-69
2024/02/23 09:25:13;;;;;;;8.52;1.35;;;;;;;5.87;100.00;98272.09;5064383;28;20024;-68
2024/02/23 09:27:43;;;;;;;5.00;1.05;;;;;;;5.94;100.00;98275.25;5072744;28;20029;-68
2024/02/23 09:30:13;;;;;;;4.88;1.33;;;;;;;5.99;100.00;98275.91;5069207;28;20033;-69
2024/02/23 09:32:38;;;;;;;4.55;0.95;;;;;;;6.08;100.00;98275.94;5067042;28;20032;-68
2024/02/23 09:35:04;;;;;;;5.05;1.00;;;;;;;6.18;100.00;98280.34;5064766;28;20507;-68
2024/02/23 09:37:30;;;;;;;7.82;1.30;;;;;;;6.26;100.00;98279.56;5037005;28;20036;-68
2024/02/23 09:39:56;;;;;;;4.97;1.15;;;;;;;6.34;100.00;98284.28;5079349;28;20100;-68
2024/02/23 09:42:23;;;;;;;4.45;0.98;;;;;;;6.45;100.00;98279.28;5063831;28;20028;-69
2024/02/23 09:44:48;;;;;;;5.78;1.20;;;;;;;6.49;100.00;98283.00;5053238;28;20050;-69
2024/02/23 09:47:14;;;;;;;3.40;1.10;;;;;;;6.56;100.00;98277.03;5073874;28;20424;-69
2024/02/23 09:49:40;;;;;;;4.43;1.20;;;;;;;6.70;100.00;98280.47;5077130;28;20031;-68
2024/02/23 09:52:07;;;;;;;8.77;1.13;;;;;;;6.76;100.00;98270.09;5073929;28;20029;-69
2024/02/23 09:54:33;;;;;;;3.35;1.17;;;;;;;6.83;100.00;98278.69;5072156;28;20028;-68
2024/02/23 09:56:59;;;;;;;10.88;1.17;;;;;;;6.85;100.00;98280.00;5075427;28;20451;-69
2024/02/23 09:59:28;;;;;;;6.72;1.38;;;;;;;6.89;100.00;98263.59;5060323;28;20032;-68
2024/02/23 10:01:53;;;;;;;5.90;1.15;;;;;;;6.96;100.00;98265.88;5074649;28;20467;-68
2024/02/23 10:04:19;;;;;;;4.32;1.20;;;;;;;6.98;100.00;98267.16;5072200;28;20035;-68
2024/02/23 10:06:44;;;;;;;6.40;1.23;;;;;;;7.03;100.00;98275.28;5075166;28;20020;-68
2024/02/23 10:09:12;;;;;;;12.82;2.10;;;;;;;7.06;100.00;98274.63;5059968;28;20033;-69
2024/02/23 10:11:38;;;;;;;7.03;2.53;;;;;;;7.09;100.00;98270.41;5065486;28;20038;-69
2024/02/23 10:14:03;;;;;;;8.32;3.53;;;;;;;7.15;100.00;98269.91;5068402;28;20384;-68
2024/02/23 10:16:29;;;;;;;12.43;3.78;;;;;;;7.22;100.00;98274.97;5057193;28;20427;-68
2024/02/23 10:18:54;;;;;;;9.10;2.88;;;;;;;7.27;100.00;98277.56;5071815;28;20043;-68
2024/02/23 10:21:20;;;;;;;7.82;3.03;;;;;;;7.26;100.00;98275.91;5079478;28;20447;-68
2024/02/23 10:23:45;;;;;;;9.55;2.85;;;;;;;7.29;100.00;98269.75;5079611;28;20028;-68
2024/02/23 10:26:11;;;;;;;7.50;2.15;;;;;;;7.40;100.00;98278.50;5079960;28;20414;-69
2024/02/23 10:28:38;;;;;;;8.45;1.88;;;;;;;7.43;100.00;98275.06;5079881;28;20089;-69
2024/02/23 10:31:04;;;;;;;6.88;1.50;;;;;;;7.50;100.00;98271.84;5082987;28;20032;-68
2024/02/23 10:33:30;;;;;;;5.38;1.60;;;;;;;7.56;100.00;98281.56;5079598;28;20537;-68
2024/02/23 10:35:59;;;;;;;5.68;1.75;;;;;;;7.58;100.00;98276.53;5073793;28;20559;-68
2024/02/23 10:38:26;;;;;;;5.28;1.52;;;;;;;7.66;100.00;98274.88;5043722;28;20037;-68
2024/02/23 10:40:51;;;;;;;8.98;1.42;;;;;;;7.71;100.00;98267.22;5053451;28;20036;-69
2024/02/23 10:43:20;;;;;;;8.18;1.40;;;;;;;7.74;100.00;98274.84;5063455;28;20024;-69
2024/02/23 10:45:45;;;;;;;6.05;1.25;;;;;;;7.81;100.00;98255.00;5081926;28;20484;-69
2024/02/23 10:48:11;;;;;;;4.22;1.10;;;;;;;7.84;100.00;98252.38;5088289;28;20105;-68
2024/02/23 10:50:37;;;;;;;4.88;1.20;;;;;;;7.90;100.00;98252.19;5078154;28;20028;-68
2024/02/23 10:53:04;;;;;;;2.05;0.85;;;;;;;7.93;100.00;98251.53;5062959;28;20028;-68
2024/02/23 10:55:29;;;;;;;7.00;1.50;;;;;;;7.98;100.00;98252.16;5065884;28;20031;-69
2024/02/23 10:57:55;;;;;;;6.50;1.20;;;;;;;8.05;100.00;98244.16;5066500;28;20037;-68
2024/02/23 11:00:22;;;;;;;4.05;1.40;;;;;;;8.14;100.00;98237.78;5072269;28;20028;-68
2024/02/23 11:02:49;;;;;;;7.15;1.10;;;;;;;8.21;100.00;98246.34;5072455;28;20032;-69
2024/02/23 11:05:14;;;;;;;3.35;0.88;;;;;;;8.27;100.00;98240.31;5079217;28;20043;-68
2024/02/23 11:07:40;;;;;;;3.33;0.77;;;;;;;8.36;100.00;98236.66;5079422;28;20025;-69
2024/02/23 11:10:05;;;;;;;5.05;1.02;;;;;;;8.43;100.00;98237.78;5065491;28;20035;-68
2024/02/23 11:12:31;;;;;;;2.08;0.55;;;;;;;8.49;100.00;98244.75;5099372;28;20089;-69
2024/02/23 11:15:00;;;;;;;6.45;0.90;;;;;;;8.57;100.00;98248.59;5043700;28;20029;-69
2024/02/23 11:17:31;;;;;;;2.30;0.80;;;;;;;8.65;100.00;98242.22;5049747;28;20025;-69
2024/02/23 11:19:56;;;;;;;5.28;1.00;;;;;;;8.73;100.00;98241.34;5060413;28;20056;-69
2024/02/23 11:22:26;;;;;;;3.38;0.93;;;;;;;8.83;100.00;98247.59;5074499;28;20029;-68
2024/02/23 11:24:51;;;;;;;6.18;0.85;;;;;;;8.90;100.00;98251.47;5085109;28;20032;-69